sensor_id;sensor_type;location;lat;lon;timestamp;pressure;altitude;pressure_sealevel;temperature;humidity
32181;BME280;19172;51.504;3.894;2023-01-31T00:01:54;102475.66;;;11.72;87.31
32181;BME280;19172;51.504;3.894;2023-01-31T00:04:22;102482.13;;;11.83;86.39
32181;BME280;19172;51.504;3.894;2023-01-31T00:06:50;102483.81;;;11.79;87.51
32181;BME280;19172;51.504;3.894;2023-01-31T00:09:20;102482.25;;;11.89;86.35
32181;BME280;19172;51.504;3.894;2023-01-31T00:11:48;102475.34;;;11.59;87.01
32181;BME280;19172;51.504;3.894;2023-01-31T00:14:18;102477.19;;;11.28;86.37
32181;BME280;19172;51.504;3.894;2023-01-31T00:16:46;102476.19;;;11.23;87.74
32181;BME280;19172;51.504;3.894;2023-01-31T00:19:15;102475.75;;;11.40;89.71
32181;BME280;19172;51.504;3.894;2023-01-31T00:21:42;102470.13;;;11.62;91.02
32181;BME280;19172;51.504;3.894;2023-01-31T00:24:12;102465.31;;;11.46;92.07
32181;BME280;19172;51.504;3.894;2023-01-31T00:26:40;102467.31;;;11.56;91.94
32181;BME280;19172;51.504;3.894;2023-01-31T00:29:09;102464.94;;;11.67;91.81
32181;BME280;19172;51.504;3.894;2023-01-31T00:31:37;102462.41;;;11.36;92.29
32181;BME280;19172;51.504;3.894;2023-01-31T00:34:06;102454.13;;;11.22;92.38
32181;BME280;19172;51.504;3.894;2023-01-31T00:36:34;102451.31;;;11.16;94.63
32181;BME280;19172;51.504;3.894;2023-01-31T00:39:05;102442.81;;;11.29;95.65
32181;BME280;19172;51.504;3.894;2023-01-31T00:41:36;102447.16;;;11.27;95.64
32181;BME280;19172;51.504;3.894;2023-01-31T00:44:05;102438.91;;;11.15;95.92
32181;BME280;19172;51.504;3.894;2023-01-31T00:46:33;102431.00;;;11.52;95.53
32181;BME280;19172;51.504;3.894;2023-01-31T00:49:03;102438.16;;;11.55;94.76
32181;BME280;19172;51.504;3.894;2023-01-31T00:51:31;102435.19;;;11.43;94.28
32181;BME280;19172;51.504;3.894;2023-01-31T00:53:59;102439.94;;;11.56;94.09
32181;BME280;19172;51.504;3.894;2023-01-31T00:56:27;102436.94;;;11.42;92.90
32181;BME280;19172;51.504;3.894;2023-01-31T00:58:55;102433.84;;;11.60;94.23
32181;BME280;19172;51.504;3.894;2023-01-31T01:01:26;102441.75;;;11.58;92.89
32181;BME280;19172;51.504;3.894;2023-01-31T01:03:55;102445.09;;;11.86;92.58
32181;BME280;19172;51.504;3.894;2023-01-31T01:06:24;102437.31;;;11.57;92.21
32181;BME280;19172;51.504;3.894;2023-01-31T01:08:53;102455.59;;;11.47;93.20
32181;BME280;19172;51.504;3.894;2023-01-31T01:11:27;102443.66;;;11.64;93.04
32181;BME280;19172;51.504;3.894;2023-01-31T01:13:56;102436.50;;;11.60;92.65
32181;BME280;19172;51.504;3.894;2023-01-31T01:16:36;102442.72;;;11.62;92.44
32181;BME280;19172;51.504;3.894;2023-01-31T01:19:12;102427.28;;;11.44;92.38
32181;BME280;19172;51.504;3.894;2023-01-31T01:21:41;102434.78;;;11.62;91.69
32181;BME280;19172;51.504;3.894;2023-01-31T01:24:14;102431.06;;;11.55;91.13
32181;BME280;19172;51.504;3.894;2023-01-31T01:26:42;102440.06;;;11.62;91.61
32181;BME280;19172;51.504;3.894;2023-01-31T01:29:11;102433.84;;;11.60;91.93
32181;BME280;19172;51.504;3.894;2023-01-31T01:31:39;102445.72;;;11.76;91.25
32181;BME280;19172;51.504;3.894;2023-01-31T01:34:13;102442.16;;;11.39;89.60
32181;BME280;19172;51.504;3.894;2023-01-31T01:36:42;102433.66;;;11.52;90.94
32181;BME280;19172;51.504;3.894;2023-01-31T01:39:16;102435.53;;;11.56;90.69
32181;BME280;19172;51.504;3.894;2023-01-31T01:41:45;102431.81;;;11.48;89.87
32181;BME280;19172;51.504;3.894;2023-01-31T01:44:43;102428.59;;;11.26;89.90
32181;BME280;19172;51.504;3.894;2023-01-31T01:47:17;102429.72;;;11.35;90.88
32181;BME280;19172;51.504;3.894;2023-01-31T01:49:52;102425.38;;;11.03;91.31
32181;BME280;19172;51.504;3.894;2023-01-31T01:52:25;102431.69;;;10.42;91.87
32181;BME280;19172;51.504;3.894;2023-01-31T01:55:18;102423.56;;;10.36;93.66
32181;BME280;19172;51.504;3.894;2023-01-31T01:57:52;102413.63;;;10.59;96.12
32181;BME280;19172;51.504;3.894;2023-01-31T02:00:24;102418.97;;;10.31;97.09
32181;BME280;19172;51.504;3.894;2023-01-31T02:02:58;102416.22;;;10.26;99.27
32181;BME280;19172;51.504;3.894;2023-01-31T02:05:31;102421.78;;;10.07;99.49
32181;BME280;19172;51.504;3.894;2023-01-31T02:08:01;102419.44;;;10.46;100.00
32181;BME280;19172;51.504;3.894;2023-01-31T02:13:18;102411.19;;;10.35;100.00
32181;BME280;19172;51.504;3.894;2023-01-31T02:15:47;102412.44;;;10.48;100.00
32181;BME280;19172;51.504;3.894;2023-01-31T02:18:18;102412.13;;;10.69;100.00
32181;BME280;19172;51.504;3.894;2023-01-31T02:29:09;102384.66;;;10.02;100.00
32181;BME280;19172;51.504;3.894;2023-01-31T02:38:25;102399.56;;;10.00;100.00
32181;BME280;19172;51.504;3.894;2023-01-31T02:41:31;102401.38;;;10.31;100.00
32181;BME280;19172;51.504;3.894;2023-01-31T02:47:25;102398.56;;;10.25;100.00
32181;BME280;19172;51.504;3.894;2023-01-31T02:52:46;102393.84;;;10.78;100.00
32181;BME280;19172;51.504;3.894;2023-01-31T02:55:33;102404.78;;;10.58;100.00
32181;BME280;19172;51.504;3.894;2023-01-31T02:58:26;102407.38;;;10.90;100.00
32181;BME280;19172;51.504;3.894;2023-01-31T03:00:59;102412.81;;;10.94;100.00
32181;BME280;19172;51.504;3.894;2023-01-31T03:03:35;102402.59;;;11.09;99.34
32181;BME280;19172;51.504;3.894;2023-01-31T03:11:42;102394.38;;;10.65;94.81
32181;BME280;19172;51.504;3.894;2023-01-31T03:14:51;102390.16;;;10.71;95.76
32181;BME280;19172;51.504;3.894;2023-01-31T03:20:31;102401.25;;;10.58;95.70
32181;BME280;19172;51.504;3.894;2023-01-31T03:23:09;102397.63;;;10.54;96.43
32181;BME280;19172;51.504;3.894;2023-01-31T03:25:39;102396.88;;;10.58;96.13
32181;BME280;19172;51.504;3.894;2023-01-31T03:28:13;102386.69;;;10.74;97.18
32181;BME280;19172;51.504;3.894;2023-01-31T03:31:01;102390.38;;;10.47;96.53
32181;BME280;19172;51.504;3.894;2023-01-31T03:33:35;102391.75;;;10.66;97.69
32181;BME280;19172;51.504;3.894;2023-01-31T03:41:44;102384.53;;;10.59;96.08
32181;BME280;19172;51.504;3.894;2023-01-31T03:47:05;102392.56;;;10.62;95.80
32181;BME280;19172;51.504;3.894;2023-01-31T03:49:40;102382.09;;;10.05;94.91
32181;BME280;19172;51.504;3.894;2023-01-31T03:52:12;102376.00;;;10.71;96.07
32181;BME280;19172;51.504;3.894;2023-01-31T03:54:52;102384.78;;;10.68;96.60
32181;BME280;19172;51.504;3.894;2023-01-31T03:57:24;102378.50;;;10.65;95.81
32181;BME280;19172;51.504;3.894;2023-01-31T03:59:58;102384.34;;;10.86;96.58
32181;BME280;19172;51.504;3.894;2023-01-31T04:02:33;102381.91;;;10.95;96.26
32181;BME280;19172;51.504;3.894;2023-01-31T04:05:17;102365.19;;;10.96;95.43
32181;BME280;19172;51.504;3.894;2023-01-31T04:07:47;102367.91;;;10.99;95.18
32181;BME280;19172;51.504;3.894;2023-01-31T04:10:22;102365.47;;;11.06;94.09
32181;BME280;19172;51.504;3.894;2023-01-31T04:12:50;102365.72;;;11.17;93.12
32181;BME280;19172;51.504;3.894;2023-01-31T04:15:18;102370.13;;;11.17;93.31
32181;BME280;19172;51.504;3.894;2023-01-31T04:17:46;102363.19;;;11.22;92.68
32181;BME280;19172;51.504;3.894;2023-01-31T04:20:14;102355.19;;;11.20;92.06
32181;BME280;19172;51.504;3.894;2023-01-31T04:22:42;102354.88;;;11.44;91.11
32181;BME280;19172;51.504;3.894;2023-01-31T04:25:09;102344.22;;;11.41;90.73
32181;BME280;19172;51.504;3.894;2023-01-31T04:27:37;102337.59;;;11.22;89.63
32181;BME280;19172;51.504;3.894;2023-01-31T04:30:06;102336.13;;;11.35;89.54
32181;BME280;19172;51.504;3.894;2023-01-31T04:32:35;102337.25;;;11.07;90.57
32181;BME280;19172;51.504;3.894;2023-01-31T04:35:03;102326.94;;;11.19;90.25
32181;BME280;19172;51.504;3.894;2023-01-31T04:37:31;102328.25;;;11.38;91.14
32181;BME280;19172;51.504;3.894;2023-01-31T04:39:59;102320.97;;;10.23;90.85
32181;BME280;19172;51.504;3.894;2023-01-31T04:42:27;102318.47;;;10.62;92.82
32181;BME280;19172;51.504;3.894;2023-01-31T04:44:55;102321.59;;;10.80;94.27
32181;BME280;19172;51.504;3.894;2023-01-31T04:47:22;102312.66;;;10.77;95.39
32181;BME280;19172;51.504;3.894;2023-01-31T04:49:50;102306.47;;;11.12;95.21
32181;BME280;19172;51.504;3.894;2023-01-31T04:52:18;102318.53;;;11.01;95.08
32181;BME280;19172;51.504;3.894;2023-01-31T04:54:46;102321.22;;;10.65;96.03
32181;BME280;19172;51.504;3.894;2023-01-31T04:57:14;102303.97;;;10.82;96.48
32181;BME280;19172;51.504;3.894;2023-01-31T04:59:42;102294.91;;;10.37;96.31
32181;BME280;19172;51.504;3.894;2023-01-31T05:02:09;102290.75;;;10.46;97.02
32181;BME280;19172;51.504;3.894;2023-01-31T05:04:37;102295.59;;;10.64;98.59
32181;BME280;19172;51.504;3.894;2023-01-31T05:07:05;102298.41;;;10.36;97.29
32181;BME280;19172;51.504;3.894;2023-01-31T05:09:33;102292.22;;;10.04;98.85
32181;BME280;19172;51.504;3.894;2023-01-31T05:12:01;102292.19;;;9.43;100.00
32181;BME280;19172;51.504;3.894;2023-01-31T05:14:29;102301.22;;;9.51;100.00
32181;BME280;19172;51.504;3.894;2023-01-31T05:16:56;102304.94;;;9.57;100.00
32181;BME280;19172;51.504;3.894;2023-01-31T05:19:24;102294.09;;;10.08;100.00
32181;BME280;19172;51.504;3.894;2023-01-31T05:21:52;102296.13;;;9.87;100.00
32181;BME280;19172;51.504;3.894;2023-01-31T05:24:35;102297.75;;;10.13;100.00
32181;BME280;19172;51.504;3.894;2023-01-31T05:27:03;102297.25;;;10.26;100.00
32181;BME280;19172;51.504;3.894;2023-01-31T05:29:31;102296.44;;;10.29;100.00
32181;BME280;19172;51.504;3.894;2023-01-31T05:32:00;102297.28;;;9.96;100.00
32181;BME280;19172;51.504;3.894;2023-01-31T05:34:28;102302.03;;;10.41;100.00
32181;BME280;19172;51.504;3.894;2023-01-31T05:37:00;102290.09;;;10.56;100.00
32181;BME280;19172;51.504;3.894;2023-01-31T05:39:29;102281.31;;;10.57;100.00
32181;BME280;19172;51.504;3.894;2023-01-31T05:41:57;102274.22;;;10.55;100.00
32181;BME280;19172;51.504;3.894;2023-01-31T05:44:25;102271.81;;;11.01;100.00
32181;BME280;19172;51.504;3.894;2023-01-31T05:46:53;102281.19;;;10.19;100.00
32181;BME280;19172;51.504;3.894;2023-01-31T05:49:21;102283.03;;;10.55;100.00
32181;BME280;19172;51.504;3.894;2023-01-31T05:51:48;102265.84;;;10.38;100.00
32181;BME280;19172;51.504;3.894;2023-01-31T05:54:16;102263.72;;;10.25;100.00
32181;BME280;19172;51.504;3.894;2023-01-31T05:56:44;102276.03;;;10.57;100.00
32181;BME280;19172;51.504;3.894;2023-01-31T05:59:12;102276.41;;;10.37;100.00
32181;BME280;19172;51.504;3.894;2023-01-31T06:01:40;102277.34;;;10.40;100.00
32181;BME280;19172;51.504;3.894;2023-01-31T06:04:09;102271.88;;;10.01;100.00
32181;BME280;19172;51.504;3.894;2023-01-31T06:06:37;102275.72;;;9.81;100.00
32181;BME280;19172;51.504;3.894;2023-01-31T06:09:04;102278.75;;;10.60;100.00
32181;BME280;19172;51.504;3.894;2023-01-31T06:11:32;102279.72;;;10.64;100.00
32181;BME280;19172;51.504;3.894;2023-01-31T06:14:00;102276.88;;;10.56;100.00
32181;BME280;19172;51.504;3.894;2023-01-31T06:16:28;102274.16;;;10.88;100.00
32181;BME280;19172;51.504;3.894;2023-01-31T06:18:56;102276.72;;;10.49;100.00
32181;BME280;19172;51.504;3.894;2023-01-31T06:21:24;102274.22;;;10.56;100.00
32181;BME280;19172;51.504;3.894;2023-01-31T06:23:52;102270.28;;;10.39;100.00
32181;BME280;19172;51.504;3.894;2023-01-31T06:26:20;102269.38;;;10.73;100.00
32181;BME280;19172;51.504;3.894;2023-01-31T06:28:47;102269.31;;;10.04;100.00
32181;BME280;19172;51.504;3.894;2023-01-31T06:31:16;102265.88;;;10.07;100.00
32181;BME280;19172;51.504;3.894;2023-01-31T06:33:45;102278.31;;;10.78;100.00
32181;BME280;19172;51.504;3.894;2023-01-31T06:36:15;102279.97;;;10.39;100.00
32181;BME280;19172;51.504;3.894;2023-01-31T06:38:50;102275.81;;;10.48;100.00
32181;BME280;19172;51.504;3.894;2023-01-31T06:41:19;102276.72;;;10.50;100.00
32181;BME280;19172;51.504;3.894;2023-01-31T06:43:48;102282.41;;;10.00;100.00
32181;BME280;19172;51.504;3.894;2023-01-31T06:46:16;102276.88;;;10.22;100.00
32181;BME280;19172;51.504;3.894;2023-01-31T06:48:44;102281.16;;;10.51;100.00
32181;BME280;19172;51.504;3.894;2023-01-31T06:51:12;102289.94;;;10.50;100.00
32181;BME280;19172;51.504;3.894;2023-01-31T06:53:40;102282.28;;;10.61;100.00
32181;BME280;19172;51.504;3.894;2023-01-31T06:56:09;102281.13;;;10.84;100.00
32181;BME280;19172;51.504;3.894;2023-01-31T06:58:37;102279.00;;;11.07;100.00
32181;BME280;19172;51.504;3.894;2023-01-31T07:01:07;102270.31;;;11.14;100.00
32181;BME280;19172;51.504;3.894;2023-01-31T07:03:35;102269.47;;;11.15;99.19
32181;BME280;19172;51.504;3.894;2023-01-31T07:06:05;102276.06;;;10.95;99.31
32181;BME280;19172;51.504;3.894;2023-01-31T07:08:34;102271.41;;;10.49;99.73
32181;BME280;19172;51.504;3.894;2023-01-31T07:11:03;102257.53;;;10.95;100.00
32181;BME280;19172;51.504;3.894;2023-01-31T07:13:31;102262.88;;;10.59;100.00
32181;BME280;19172;51.504;3.894;2023-01-31T07:15:59;102258.84;;;10.76;100.00
32181;BME280;19172;51.504;3.894;2023-01-31T07:18:28;102258.50;;;10.62;100.00
32181;BME280;19172;51.504;3.894;2023-01-31T07:20:56;102251.94;;;10.47;100.00
32181;BME280;19172;51.504;3.894;2023-01-31T07:23:24;102256.97;;;10.71;100.00
32181;BME280;19172;51.504;3.894;2023-01-31T07:25:52;102254.25;;;10.69;100.00
32181;BME280;19172;51.504;3.894;2023-01-31T07:28:20;102249.25;;;10.80;100.00
32181;BME280;19172;51.504;3.894;2023-01-31T07:30:47;102251.78;;;11.12;100.00
32181;BME280;19172;51.504;3.894;2023-01-31T07:33:15;102251.81;;;11.14;100.00
32181;BME280;19172;51.504;3.894;2023-01-31T07:35:43;102245.03;;;11.27;100.00
32181;BME280;19172;51.504;3.894;2023-01-31T07:38:11;102248.78;;;10.97;100.00
32181;BME280;19172;51.504;3.894;2023-01-31T07:40:39;102240.81;;;10.60;100.00
32181;BME280;19172;51.504;3.894;2023-01-31T07:43:06;102232.81;;;11.33;100.00
32181;BME280;19172;51.504;3.894;2023-01-31T07:45:34;102238.38;;;11.05;100.00
32181;BME280;19172;51.504;3.894;2023-01-31T07:48:03;102228.91;;;11.16;100.00
32181;BME280;19172;51.504;3.894;2023-01-31T07:50:32;102233.72;;;10.95;100.00
32181;BME280;19172;51.504;3.894;2023-01-31T07:53:00;102238.50;;;11.11;100.00
32181;BME280;19172;51.504;3.894;2023-01-31T07:55:28;102223.50;;;11.10;100.00
32181;BME280;19172;51.504;3.894;2023-01-31T07:57:56;102215.34;;;10.63;100.00
32181;BME280;19172;51.504;3.894;2023-01-31T08:00:24;102214.91;;;10.83;100.00
32181;BME280;19172;51.504;3.894;2023-01-31T08:03:24;102200.56;;;10.73;100.00
32181;BME280;19172;51.504;3.894;2023-01-31T08:06:07;102199.31;;;10.95;100.00
32181;BME280;19172;51.504;3.894;2023-01-31T08:08:37;102201.34;;;10.68;100.00
32181;BME280;19172;51.504;3.894;2023-01-31T08:11:05;102198.38;;;11.33;100.00
32181;BME280;19172;51.504;3.894;2023-01-31T08:13:34;102196.84;;;11.02;100.00
32181;BME280;19172;51.504;3.894;2023-01-31T08:16:03;102212.53;;;10.56;100.00
32181;BME280;19172;51.504;3.894;2023-01-31T08:18:32;102198.53;;;10.99;100.00
32181;BME280;19172;51.504;3.894;2023-01-31T08:21:00;102191.03;;;11.20;100.00
32181;BME280;19172;51.504;3.894;2023-01-31T08:23:28;102186.88;;;11.31;100.00
32181;BME280;19172;51.504;3.894;2023-01-31T08:26:04;102185.31;;;11.41;100.00
32181;BME280;19172;51.504;3.894;2023-01-31T08:28:32;102182.75;;;11.03;100.00
32181;BME280;19172;51.504;3.894;2023-01-31T08:31:00;102197.97;;;10.75;100.00
32181;BME280;19172;51.504;3.894;2023-01-31T08:33:36;102200.91;;;10.88;100.00
32181;BME280;19172;51.504;3.894;2023-01-31T08:36:22;102207.25;;;10.95;100.00
32181;BME280;19172;51.504;3.894;2023-01-31T08:38:51;102205.09;;;10.79;100.00
32181;BME280;19172;51.504;3.894;2023-01-31T08:41:21;102201.97;;;10.57;100.00
32181;BME280;19172;51.504;3.894;2023-01-31T08:43:50;102212.13;;;10.41;100.00
32181;BME280;19172;51.504;3.894;2023-01-31T08:46:26;102211.22;;;10.39;100.00
32181;BME280;19172;51.504;3.894;2023-01-31T08:48:59;102210.34;;;10.76;100.00
32181;BME280;19172;51.504;3.894;2023-01-31T08:51:27;102201.03;;;10.93;100.00
32181;BME280;19172;51.504;3.894;2023-01-31T08:53:55;102197.16;;;10.40;100.00
32181;BME280;19172;51.504;3.894;2023-01-31T08:56:23;102201.81;;;10.51;100.00
32181;BME280;19172;51.504;3.894;2023-01-31T08:58:56;102197.16;;;10.40;100.00
32181;BME280;19172;51.504;3.894;2023-01-31T09:01:23;102182.75;;;10.29;100.00
32181;BME280;19172;51.504;3.894;2023-01-31T09:03:52;102179.00;;;10.56;100.00
32181;BME280;19172;51.504;3.894;2023-01-31T09:06:25;102175.31;;;10.48;100.00
32181;BME280;19172;51.504;3.894;2023-01-31T09:08:55;102181.84;;;10.64;100.00
32181;BME280;19172;51.504;3.894;2023-01-31T09:11:27;102185.66;;;10.39;100.00
32181;BME280;19172;51.504;3.894;2023-01-31T09:13:55;102174.22;;;10.40;100.00
32181;BME280;19172;51.504;3.894;2023-01-31T09:16:23;102200.34;;;10.27;100.00
32181;BME280;19172;51.504;3.894;2023-01-31T09:18:52;102194.88;;;10.55;100.00
32181;BME280;19172;51.504;3.894;2023-01-31T09:21:21;102196.25;;;10.75;100.00
32181;BME280;19172;51.504;3.894;2023-01-31T09:23:58;102178.03;;;10.53;100.00
32181;BME280;19172;51.504;3.894;2023-01-31T09:26:27;102173.13;;;11.07;100.00
32181;BME280;19172;51.504;3.894;2023-01-31T09:28:56;102176.06;;;10.82;100.00
32181;BME280;19172;51.504;3.894;2023-01-31T09:31:25;102176.63;;;11.48;100.00
32181;BME280;19172;51.504;3.894;2023-01-31T09:33:54;102184.06;;;12.12;100.00
32181;BME280;19172;51.504;3.894;2023-01-31T09:36:22;102177.59;;;11.51;100.00
32181;BME280;19172;51.504;3.894;2023-01-31T09:38:55;102187.78;;;11.75;100.00
32181;BME280;19172;51.504;3.894;2023-01-31T09:41:25;102194.03;;;11.77;100.00
32181;BME280;19172;51.504;3.894;2023-01-31T09:44:01;102184.31;;;12.27;100.00
32181;BME280;19172;51.504;3.894;2023-01-31T09:46:38;102177.44;;;11.89;100.00
32181;BME280;19172;51.504;3.894;2023-01-31T09:49:19;102185.22;;;11.81;100.00
32181;BME280;19172;51.504;3.894;2023-01-31T09:51:54;102167.50;;;12.27;100.00
32181;BME280;19172;51.504;3.894;2023-01-31T09:54:35;102145.50;;;12.34;100.00
32181;BME280;19172;51.504;3.894;2023-01-31T10:05:36;102152.28;;;12.16;100.00
32181;BME280;19172;51.504;3.894;2023-01-31T10:11:13;102152.91;;;12.00;100.00
32181;BME280;19172;51.504;3.894;2023-01-31T10:13:53;102159.31;;;11.66;100.00
32181;BME280;19172;51.504;3.894;2023-01-31T10:16:37;102169.38;;;11.39;100.00
32181;BME280;19172;51.504;3.894;2023-01-31T10:19:13;102152.22;;;11.64;100.00
32181;BME280;19172;51.504;3.894;2023-01-31T10:22:02;102158.38;;;11.63;100.00
32181;BME280;19172;51.504;3.894;2023-01-31T10:24:39;102150.41;;;11.18;100.00
32181;BME280;19172;51.504;3.894;2023-01-31T10:27:41;102156.41;;;11.51;100.00
32181;BME280;19172;51.504;3.894;2023-01-31T10:30:18;102159.69;;;11.85;100.00
32181;BME280;19172;51.504;3.894;2023-01-31T10:32:55;102169.84;;;12.10;100.00
32181;BME280;19172;51.504;3.894;2023-01-31T10:35:32;102175.69;;;12.40;100.00
32181;BME280;19172;51.504;3.894;2023-01-31T10:40:41;102146.88;;;11.62;100.00
32181;BME280;19172;51.504;3.894;2023-01-31T10:43:35;102130.06;;;11.60;100.00
32181;BME280;19172;51.504;3.894;2023-01-31T10:46:11;102144.34;;;12.16;100.00
32181;BME280;19172;51.504;3.894;2023-01-31T10:48:43;102147.19;;;12.29;100.00
32181;BME280;19172;51.504;3.894;2023-01-31T10:56:40;102142.63;;;12.20;100.00
32181;BME280;19172;51.504;3.894;2023-01-31T11:02:23;102146.69;;;12.00;100.00
32181;BME280;19172;51.504;3.894;2023-01-31T11:04:54;102141.53;;;12.07;100.00
32181;BME280;19172;51.504;3.894;2023-01-31T11:07:23;102141.38;;;12.52;100.00
32181;BME280;19172;51.504;3.894;2023-01-31T11:09:52;102148.88;;;12.24;100.00
32181;BME280;19172;51.504;3.894;2023-01-31T11:12:40;102148.84;;;12.22;100.00
32181;BME280;19172;51.504;3.894;2023-01-31T11:15:17;102154.44;;;11.88;100.00
32181;BME280;19172;51.504;3.894;2023-01-31T11:17:47;102144.44;;;12.23;100.00
32181;BME280;19172;51.504;3.894;2023-01-31T11:20:24;102145.31;;;11.71;100.00
32181;BME280;19172;51.504;3.894;2023-01-31T11:22:56;102144.38;;;12.19;100.00
32181;BME280;19172;51.504;3.894;2023-01-31T11:25:28;102159.03;;;11.96;100.00
32181;BME280;19172;51.504;3.894;2023-01-31T11:28:00;102142.41;;;12.62;100.00
32181;BME280;19172;51.504;3.894;2023-01-31T11:30:35;102134.63;;;12.15;100.00
32181;BME280;19172;51.504;3.894;2023-01-31T11:33:05;102132.16;;;12.29;100.00
32181;BME280;19172;51.504;3.894;2023-01-31T11:35:34;102130.25;;;12.78;100.00
32181;BME280;19172;51.504;3.894;2023-01-31T11:40:38;102131.66;;;12.54;100.00
32181;BME280;19172;51.504;3.894;2023-01-31T11:43:24;102133.59;;;12.07;100.00
32181;BME280;19172;51.504;3.894;2023-01-31T11:45:59;102137.22;;;12.69;100.00
32181;BME280;19172;51.504;3.894;2023-01-31T11:48:39;102150.38;;;12.08;100.00
32181;BME280;19172;51.504;3.894;2023-01-31T11:51:09;102140.03;;;12.82;100.00
32181;BME280;19172;51.504;3.894;2023-01-31T11:56:29;102134.88;;;12.92;100.00
32181;BME280;19172;51.504;3.894;2023-01-31T11:59:03;102137.13;;;12.63;100.00
32181;BME280;19172;51.504;3.894;2023-01-31T12:01:45;102131.22;;;12.84;100.00
32181;BME280;19172;51.504;3.894;2023-01-31T12:04:21;102140.34;;;13.06;100.00
32181;BME280;19172;51.504;3.894;2023-01-31T12:07:04;102126.69;;;12.76;100.00
32181;BME280;19172;51.504;3.894;2023-01-31T12:09:43;102128.91;;;12.47;100.00
32181;BME280;19172;51.504;3.894;2023-01-31T12:12:33;102129.50;;;12.28;100.00
32181;BME280;19172;51.504;3.894;2023-01-31T12:15:13;102128.28;;;12.63;100.00
32181;BME280;19172;51.504;3.894;2023-01-31T12:17:48;102117.72;;;12.67;100.00
32181;BME280;19172;51.504;3.894;2023-01-31T12:20:42;102130.13;;;12.68;100.00
32181;BME280;19172;51.504;3.894;2023-01-31T12:37:14;102100.38;;;12.94;100.00
32181;BME280;19172;51.504;3.894;2023-01-31T12:42:57;102082.25;;;12.62;100.00
32181;BME280;19172;51.504;3.894;2023-01-31T12:48:43;102075.16;;;13.31;100.00
32181;BME280;19172;51.504;3.894;2023-01-31T12:56:58;102068.13;;;12.65;100.00
32181;BME280;19172;51.504;3.894;2023-01-31T13:02:41;102085.00;;;13.39;100.00
32181;BME280;19172;51.504;3.894;2023-01-31T13:08:16;102070.69;;;13.25;100.00
32181;BME280;19172;51.504;3.894;2023-01-31T13:13:54;102068.13;;;13.34;100.00
32181;BME280;19172;51.504;3.894;2023-01-31T13:19:02;102083.41;;;13.55;100.00
32181;BME280;19172;51.504;3.894;2023-01-31T13:21:40;102073.72;;;13.63;100.00
32181;BME280;19172;51.504;3.894;2023-01-31T13:24:24;102073.47;;;13.36;100.00
32181;BME280;19172;51.504;3.894;2023-01-31T13:27:07;102065.91;;;13.79;100.00
32181;BME280;19172;51.504;3.894;2023-01-31T13:29:44;102066.75;;;13.74;100.00
32181;BME280;19172;51.504;3.894;2023-01-31T13:32:37;102067.63;;;13.76;100.00
32181;BME280;19172;51.504;3.894;2023-01-31T13:35:19;102064.59;;;13.34;100.00
32181;BME280;19172;51.504;3.894;2023-01-31T13:37:54;102061.41;;;13.71;100.00
32181;BME280;19172;51.504;3.894;2023-01-31T13:40:30;102050.25;;;13.21;100.00
32181;BME280;19172;51.504;3.894;2023-01-31T13:43:09;102063.84;;;13.50;100.00
32181;BME280;19172;51.504;3.894;2023-01-31T13:45:44;102058.53;;;13.48;100.00
32181;BME280;19172;51.504;3.894;2023-01-31T13:48:34;102058.34;;;13.30;100.00
32181;BME280;19172;51.504;3.894;2023-01-31T13:51:13;102062.16;;;13.59;100.00
32181;BME280;19172;51.504;3.894;2023-01-31T13:53:54;102067.41;;;13.49;100.00
32181;BME280;19172;51.504;3.894;2023-01-31T13:56:28;102067.13;;;14.24;100.00
32181;BME280;19172;51.504;3.894;2023-01-31T13:58:59;102067.97;;;14.15;100.00
32181;BME280;19172;51.504;3.894;2023-01-31T14:01:33;102078.88;;;13.48;100.00
32181;BME280;19172;51.504;3.894;2023-01-31T14:09:25;102099.50;;;13.71;100.00
32181;BME280;19172;51.504;3.894;2023-01-31T14:11:59;102100.69;;;14.04;100.00
32181;BME280;19172;51.504;3.894;2023-01-31T14:17:12;102114.97;;;13.26;100.00
32181;BME280;19172;51.504;3.894;2023-01-31T14:22:19;102104.25;;;14.07;100.00
32181;BME280;19172;51.504;3.894;2023-01-31T14:27:20;102109.91;;;13.50;100.00
32181;BME280;19172;51.504;3.894;2023-01-31T14:32:45;102089.81;;;13.75;100.00
32181;BME280;19172;51.504;3.894;2023-01-31T14:38:01;102094.66;;;13.31;100.00
32181;BME280;19172;51.504;3.894;2023-01-31T14:40:54;102098.78;;;13.89;100.00
32181;BME280;19172;51.504;3.894;2023-01-31T14:46:28;102112.63;;;13.56;100.00
32181;BME280;19172;51.504;3.894;2023-01-31T14:57:27;102103.31;;;13.99;100.00
32181;BME280;19172;51.504;3.894;2023-01-31T15:00:04;102106.81;;;13.95;100.00
32181;BME280;19172;51.504;3.894;2023-01-31T15:02:44;102092.50;;;13.83;100.00
32181;BME280;19172;51.504;3.894;2023-01-31T15:05:17;102104.94;;;13.85;100.00
32181;BME280;19172;51.504;3.894;2023-01-31T15:16:06;102123.78;;;14.09;100.00
32181;BME280;19172;51.504;3.894;2023-01-31T15:18:37;102129.97;;;14.07;100.00
32181;BME280;19172;51.504;3.894;2023-01-31T15:21:08;102137.19;;;14.24;100.00
32181;BME280;19172;51.504;3.894;2023-01-31T15:23:41;102135.78;;;13.65;100.00
32181;BME280;19172;51.504;3.894;2023-01-31T15:26:10;102123.56;;;13.84;100.00
32181;BME280;19172;51.504;3.894;2023-01-31T15:28:43;102126.31;;;13.96;100.00
32181;BME280;19172;51.504;3.894;2023-01-31T15:31:29;102133.47;;;14.03;100.00
32181;BME280;19172;51.504;3.894;2023-01-31T15:34:04;102130.56;;;13.78;100.00
32181;BME280;19172;51.504;3.894;2023-01-31T15:36:46;102127.81;;;13.65;100.00